Ertholm — OVJX — position and weather

sailwx.info

Track history (hours):
 
Tides and Currents Weather Stations Pressure Air Temp Water Temp Dewpoint Dewpoint Depression Visibility Wind Speed Wind Dir Waves Ship Positions

Ertholm

Last reported at 2014-Jul-26 18:33 UTC. Time now 2014-Jul-26 19:20 UTC.
Position N 55°13' E 014°58'.

Length 38 m; draft 2.3 m.

Type: Ship. MMSI: 219000751.

Date/timePositionNaut miles runAvg speedWind from/ knotsBaromVisibWave heightAir tempDewpointWater temp
2014-Jul-26 18:33N 55°13' E 014°58'0 0.0
2014-Jul-26 17:33N 55°13' E 014°58'0 0.0
2014-Jul-26 16:33N 55°13' E 014°58'0 0.0
2014-Jul-26 15:33N 55°13' E 014°58'7 6.8
2014-Jul-26 14:33N 55°18' E 015°07'2 2.1
2014-Jul-26 13:33N 55°16' E 015°04'1 0.6
2014-Jul-26 12:33N 55°16' E 015°04'6 5.6
2014-Jul-26 11:33N 55°19' E 015°11'10 9.7
2014-Jul-26 10:33N 55°13' E 014°58'6 5.9
2014-Jul-26 09:33N 55°17' E 015°06'0 0.1
2014-Jul-26 08:33N 55°17' E 015°06'6 6.2
2014-Jul-26 07:33N 55°13' E 014°58'0 0.0
2014-Jul-26 06:33N 55°13' E 014°58'0 0.0
2014-Jul-26 05:33N 55°13' E 014°58'0 0.0
2014-Jul-26 04:33N 55°13' E 014°58'0 0.0
2014-Jul-26 03:33N 55°13' E 014°58'0 0.0
2014-Jul-26 02:33N 55°13' E 014°58'0 0.0
2014-Jul-26 01:33N 55°13' E 014°58'0 0.0
2014-Jul-26 00:33N 55°13' E 014°58'0 0.0
2014-Jul-25 23:33N 55°13' E 014°58'0 0.0
2014-Jul-25 22:33N 55°13' E 014°58'0 0.0
2014-Jul-25 21:33N 55°13' E 014°58'0 0.0
2014-Jul-25 20:33N 55°13' E 014°58'0 0.0
2014-Jul-25 19:33N 55°13' E 014°58'0 0.0
2014-Jul-25 18:33N 55°13' E 014°58'0 0.0
2014-Jul-25 17:33N 55°13' E 014°58'0 0.0
2014-Jul-25 16:33N 55°13' E 014°58'0 0.0
2014-Jul-25 15:33N 55°13' E 014°58'7 7.1
2014-Jul-25 14:33N 55°18' E 015°07'3 3.0
2014-Jul-25 13:33N 55°16' E 015°03'0 0.2
2014-Jul-25 12:33N 55°16' E 015°03'6 5.6
2014-Jul-25 11:33N 55°19' E 015°11'10 9.8
2014-Jul-25 10:33N 55°13' E 014°58'6 6.5
2014-Jul-25 09:33N 55°17' E 015°07'1 0.6
2014-Jul-25 08:33N 55°17' E 015°06'6 5.3
2014-Jul-25 07:26N 55°13' E 014°58'0 0.0
2014-Jul-25 06:33N 55°13' E 014°58'0 0.0
2014-Jul-25 05:32N 55°13' E 014°58'0 0.0
2014-Jul-25 04:33N 55°13' E 014°58'0 0.0
2014-Jul-25 03:33N 55°13' E 014°58'0 0.0
2014-Jul-25 02:33N 55°13' E 014°58'0 0.0
2014-Jul-25 01:33N 55°13' E 014°58'0 0.0
2014-Jul-25 00:33N 55°13' E 014°58'0 0.0
2014-Jul-24 23:33N 55°13' E 014°58'0 0.0
2014-Jul-24 22:33N 55°13' E 014°58'0 0.0
2014-Jul-24 21:33N 55°13' E 014°58'0 0.0
2014-Jul-24 20:33N 55°13' E 014°58'0 0.0
2014-Jul-24 19:33N 55°13' E 014°58'0 0.0
2014-Jul-24 18:33N 55°13' E 014°58'10 9.9
2014-Jul-24 17:33N 55°19' E 015°11'6 5.7
2014-Jul-24 16:33N 55°16' E 015°04'4 4.1
2014-Jul-24 15:33N 55°13' E 014°58'7 7.1
2014-Jul-24 14:33N 55°18' E 015°07'3 3.1
2014-Jul-24 13:33N 55°16' E 015°03'0 0.3
2014-Jul-24 12:33N 55°16' E 015°04'6 5.5
2014-Jul-24 11:33N 55°19' E 015°11'10 9.8
2014-Jul-24 10:33N 55°13' E 014°58'6 6.2
2014-Jul-24 09:33N 55°17' E 015°06'0 0.3
2014-Jul-24 08:33N 55°17' E 015°06'6 5.9
2014-Jul-24 07:33N 55°13' E 014°58'1 0.1
2014-Jul-23 18:33N 55°13' E 014°57'1010.1
2014-Jul-23 17:33N 55°19' E 015°11'5 4.6
2014-Jul-23 16:33N 55°16' E 015°05'5 5.2
2014-Jul-23 15:32N 55°13' E 014°58'7 7.1
2014-Jul-23 14:33N 55°17' E 015°07'2 2.5
2014-Jul-23 13:33N 55°16' E 015°04'1 0.6
2014-Jul-23 12:34N 55°15' E 015°04'6 5.7
2014-Jul-23 11:34N 55°19' E 015°11'10 9.7
2014-Jul-23 10:34N 55°13' E 014°58'6 5.9
2014-Jul-23 09:33N 55°17' E 015°06'0 0.5
2014-Jul-23 08:34N 55°17' E 015°05'6 5.7
2014-Jul-23 07:34N 55°13' E 014°58'0 0.0
2014-Jul-22 18:34N 55°13' E 014°57'10 8.7
2014-Jul-22 17:25N 55°19' E 015°11'5 5.6
2014-Jul-22 16:34N 55°17' E 015°04'5 4.9
2014-Jul-22 15:31N 55°13' E 014°58'7 7.2
2014-Jul-22 14:34N 55°17' E 015°07'2 2.4
2014-Jul-22 13:33N 55°16' E 015°04'1 0.6
2014-Jul-22 12:33N 55°15' E 015°03'6 6.0
2014-Jul-22 11:33N 55°19' E 015°11'10 9.9
2014-Jul-22 10:34N 55°13' E 014°58'6 6.1
2014-Jul-22 09:34N 55°17' E 015°06'0 0.4
2014-Jul-22 08:33N 55°17' E 015°05'6 5.8
2014-Jul-22 07:34N 55°13' E 014°58'3 0.2
2014-Jul-21 15:34N 55°14' E 014°54'8 8.2
2014-Jul-21 14:34N 55°18' E 015°07'3 3.1
2014-Jul-21 13:33N 55°16' E 015°03'0 0.2
2014-Jul-21 12:34N 55°16' E 015°04'6 5.6
2014-Jul-21 11:33N 55°19' E 015°11'10 9.9
2014-Jul-21 10:34N 55°13' E 014°58'6 6.2
2014-Jul-21 09:34N 55°17' E 015°06'1 1.0
2014-Jul-21 08:34N 55°16' E 015°05'6 5.5
2014-Jul-21 07:34N 55°13' E 014°57'1 0.0
2014-Jul-20 15:33N 55°14' E 014°56'8 8.0
2014-Jul-20 14:33N 55°18' E 015°08'4 4.0
2014-Jul-20 13:33N 55°16' E 015°02'1 0.7
2014-Jul-20 12:34N 55°16' E 015°04'6 5.6
2014-Jul-20 11:33N 55°19' E 015°11'10 9.6
2014-Jul-20 10:33N 55°13' E 014°59'6 6.3
2014-Jul-20 09:33N 55°17' E 015°07'1 1.0
2014-Jul-20 08:34N 55°17' E 015°05'6 5.6
2014-Jul-20 07:34N 55°13' E 014°58'0 0.0
2014-Jul-20 06:34N 55°13' E 014°58'0 0.0
2014-Jul-20 05:33N 55°13' E 014°58'0 0.0
2014-Jul-20 04:34N 55°13' E 014°58'0 0.0
2014-Jul-20 03:33N 55°13' E 014°58'0 0.0
2014-Jul-20 02:34N 55°13' E 014°58'0 0.0
2014-Jul-20 01:33N 55°13' E 014°58'0 0.0
2014-Jul-20 00:33N 55°13' E 014°58'0 0.0
2014-Jul-19 23:33N 55°13' E 014°58'0 0.0
2014-Jul-19 22:33N 55°13' E 014°58'0 0.0
2014-Jul-19 21:34N 55°13' E 014°58'0 0.0
2014-Jul-19 20:34N 55°13' E 014°58'0 0.0
2014-Jul-19 19:33N 55°13' E 014°58'0 0.0
2014-Jul-19 18:34N 55°13' E 014°58'0 0.0
2014-Jul-19 17:33N 55°13' E 014°58'0 0.0
2014-Jul-19 16:33N 55°13' E 014°58'0 0.0
2014-Jul-19 15:33N 55°13' E 014°58'7 7.3
2014-Jul-19 14:33N 55°18' E 015°08'3 2.8
2014-Jul-19 13:34N 55°16' E 015°04'0 0.4
2014-Jul-19 12:34N 55°16' E 015°03'6 5.7
2014-Jul-19 11:33N 55°19' E 015°11'10 9.5
2014-Jul-19 10:33N 55°13' E 014°59'6 6.0
2014-Jul-19 09:34N 55°17' E 015°06'0 0.3
2014-Jul-19 08:33N 55°17' E 015°06'6 6.2
2014-Jul-19 07:33N 55°13' E 014°58'0 0.0
2014-Jul-19 06:33N 55°13' E 014°58'0 0.0
2014-Jul-19 05:33N 55°13' E 014°58'0 0.0
2014-Jul-19 04:34N 55°13' E 014°58'0 0.0
2014-Jul-19 03:32N 55°13' E 014°58'0 0.0
2014-Jul-19 02:33N 55°13' E 014°58'0 0.0
2014-Jul-19 01:34N 55°13' E 014°58'0 0.0
2014-Jul-19 00:34N 55°13' E 014°58'0 0.0
2014-Jul-18 23:34N 55°13' E 014°58'0 0.0
2014-Jul-18 22:33N 55°13' E 014°58'0 0.0
2014-Jul-18 21:34N 55°13' E 014°58'0 0.0
2014-Jul-18 20:33N 55°13' E 014°58'0 0.0
2014-Jul-18 19:33N 55°13' E 014°58'0 0.0
2014-Jul-18 18:34N 55°13' E 014°58'0 0.0
2014-Jul-18 17:34N 55°13' E 014°58'0 0.0
2014-Jul-18 16:33N 55°13' E 014°58'0 0.0
2014-Jul-18 15:33N 55°13' E 014°58'7 7.4
2014-Jul-18 14:34N 55°18' E 015°08'4 3.7
2014-Jul-18 13:33N 55°15' E 015°03'0 0.5
2014-Jul-18 12:34N 55°16' E 015°03'6 5.7
2014-Jul-18 11:33N 55°19' E 015°11'10 9.6
2014-Jul-18 10:34N 55°13' E 014°59'6 5.8
2014-Jul-18 09:33N 55°17' E 015°06'0 0.4
2014-Jul-18 08:33N 55°17' E 015°06'6 6.4
2014-Jul-18 07:33N 55°13' E 014°58'0 0.0
2014-Jul-18 06:33N 55°13' E 014°58'0 0.0
2014-Jul-18 05:34N 55°13' E 014°58'0 0.0
2014-Jul-18 04:33N 55°13' E 014°58'0 0.0
2014-Jul-18 03:33N 55°13' E 014°58'0 0.0
2014-Jul-18 02:34N 55°13' E 014°58'0 0.0
2014-Jul-18 01:34N 55°13' E 014°58'0 0.0
2014-Jul-18 00:34N 55°13' E 014°58'0 0.0
2014-Jul-17 23:34N 55°13' E 014°58'0 0.0
2014-Jul-17 22:33N 55°13' E 014°58'0 0.0
2014-Jul-17 21:34N 55°13' E 014°58'0 0.0
2014-Jul-17 20:34N 55°13' E 014°58'0 0.0
2014-Jul-17 19:33N 55°13' E 014°58'0 0.0
2014-Jul-17 18:33N 55°13' E 014°58'1010.1
2014-Jul-17 17:34N 55°20' E 015°11'6 5.6
2014-Jul-17 16:34N 55°16' E 015°04'4 4.4
2014-Jul-17 15:34N 55°13' E 014°58'7 7.2
2014-Jul-17 14:34N 55°18' E 015°07'2 1.6
2014-Jul-17 13:34N 55°17' E 015°06'2 2.3
2014-Jul-17 12:34N 55°15' E 015°02'6 6.4
2014-Jul-17 11:34N 55°19' E 015°11'9 9.0
2014-Jul-17 10:34N 55°13' E 014°59'5 5.2
2014-Jul-17 09:33N 55°17' E 015°06'1 0.5
2014-Jul-17 08:33N 55°17' E 015°06'6 6.4
2014-Jul-17 07:33N 55°13' E 014°58'0 0.0
2014-Jul-17 06:34N 55°13' E 014°58'0 0.0
2014-Jul-17 05:33N 55°13' E 014°58'0 0.0
2014-Jul-17 04:33N 55°13' E 014°58'0 0.0
2014-Jul-17 03:33N 55°13' E 014°58'0 0.0
2014-Jul-17 02:34N 55°13' E 014°58'0 0.0
2014-Jul-17 01:34N 55°13' E 014°58'0 0.0
2014-Jul-17 00:33N 55°13' E 014°58'0 0.0
2014-Jul-16 23:34N 55°13' E 014°58'0 0.0
2014-Jul-16 22:33N 55°13' E 014°58'0 0.0
2014-Jul-16 21:34N 55°13' E 014°58'0 0.0
2014-Jul-16 20:34N 55°13' E 014°58'0 0.0
2014-Jul-16 19:34N 55°13' E 014°58'0 0.0
2014-Jul-16 18:33N 55°13' E 014°58'  
Track history (hours):
 
Tides and Currents Weather Stations Pressure Air Temp Water Temp Dewpoint Dewpoint Depression Visibility Wind Speed Wind Dir Waves Ship Positions

Ertholm

Last reported at 2014-Jul-26 18:33 UTC. Time now 2014-Jul-26 19:20 UTC.
Position N 55°13' E 014°58'.

Length 38 m; draft 2.3 m.

Type: Ship. MMSI: 219000751.

Date/timePositionNaut miles runAvg speedWind from/ knotsBaromVisibWave heightAir tempDewpointWater temp
2014-Jul-26 18:33N 55°13' E 014°58'0 0.0
2014-Jul-26 17:33N 55°13' E 014°58'0 0.0
2014-Jul-26 16:33N 55°13' E 014°58'0 0.0
2014-Jul-26 15:33N 55°13' E 014°58'7 6.8
2014-Jul-26 14:33N 55°18' E 015°07'2 2.1
2014-Jul-26 13:33N 55°16' E 015°04'1 0.6
2014-Jul-26 12:33N 55°16' E 015°04'6 5.6
2014-Jul-26 11:33N 55°19' E 015°11'10 9.7
2014-Jul-26 10:33N 55°13' E 014°58'6 5.9
2014-Jul-26 09:33N 55°17' E 015°06'0 0.1
2014-Jul-26 08:33N 55°17' E 015°06'6 6.2
2014-Jul-26 07:33N 55°13' E 014°58'0 0.0
2014-Jul-26 06:33N 55°13' E 014°58'0 0.0
2014-Jul-26 05:33N 55°13' E 014°58'0 0.0
2014-Jul-26 04:33N 55°13' E 014°58'0 0.0
2014-Jul-26 03:33N 55°13' E 014°58'0 0.0
2014-Jul-26 02:33N 55°13' E 014°58'0 0.0
2014-Jul-26 01:33N 55°13' E 014°58'0 0.0
2014-Jul-26 00:33N 55°13' E 014°58'0 0.0
2014-Jul-25 23:33N 55°13' E 014°58'0 0.0
2014-Jul-25 22:33N 55°13' E 014°58'0 0.0
2014-Jul-25 21:33N 55°13' E 014°58'0 0.0
2014-Jul-25 20:33N 55°13' E 014°58'0 0.0
2014-Jul-25 19:33N 55°13' E 014°58'0 0.0
2014-Jul-25 18:33N 55°13' E 014°58'0 0.0
2014-Jul-25 17:33N 55°13' E 014°58'0 0.0
2014-Jul-25 16:33N 55°13' E 014°58'0 0.0
2014-Jul-25 15:33N 55°13' E 014°58'7 7.1
2014-Jul-25 14:33N 55°18' E 015°07'3 3.0
2014-Jul-25 13:33N 55°16' E 015°03'0 0.2
2014-Jul-25 12:33N 55°16' E 015°03'6 5.6
2014-Jul-25 11:33N 55°19' E 015°11'10 9.8
2014-Jul-25 10:33N 55°13' E 014°58'6 6.5
2014-Jul-25 09:33N 55°17' E 015°07'1 0.6
2014-Jul-25 08:33N 55°17' E 015°06'6 5.3
2014-Jul-25 07:26N 55°13' E 014°58'0 0.0
2014-Jul-25 06:33N 55°13' E 014°58'0 0.0
2014-Jul-25 05:32N 55°13' E 014°58'0 0.0
2014-Jul-25 04:33N 55°13' E 014°58'0 0.0
2014-Jul-25 03:33N 55°13' E 014°58'0 0.0
2014-Jul-25 02:33N 55°13' E 014°58'0 0.0
2014-Jul-25 01:33N 55°13' E 014°58'0 0.0
2014-Jul-25 00:33N 55°13' E 014°58'0 0.0
2014-Jul-24 23:33N 55°13' E 014°58'0 0.0
2014-Jul-24 22:33N 55°13' E 014°58'0 0.0
2014-Jul-24 21:33N 55°13' E 014°58'0 0.0
2014-Jul-24 20:33N 55°13' E 014°58'0 0.0
2014-Jul-24 19:33N 55°13' E 014°58'0 0.0
2014-Jul-24 18:33N 55°13' E 014°58'10 9.9
2014-Jul-24 17:33N 55°19' E 015°11'6 5.7
2014-Jul-24 16:33N 55°16' E 015°04'4 4.1
2014-Jul-24 15:33N 55°13' E 014°58'7 7.1
2014-Jul-24 14:33N 55°18' E 015°07'3 3.1
2014-Jul-24 13:33N 55°16' E 015°03'0 0.3
2014-Jul-24 12:33N 55°16' E 015°04'6 5.5
2014-Jul-24 11:33N 55°19' E 015°11'10 9.8
2014-Jul-24 10:33N 55°13' E 014°58'6 6.2
2014-Jul-24 09:33N 55°17' E 015°06'0 0.3
2014-Jul-24 08:33N 55°17' E 015°06'6 5.9
2014-Jul-24 07:33N 55°13' E 014°58'1 0.1
2014-Jul-23 18:33N 55°13' E 014°57'1010.1
2014-Jul-23 17:33N 55°19' E 015°11'5 4.6
2014-Jul-23 16:33N 55°16' E 015°05'5 5.2
2014-Jul-23 15:32N 55°13' E 014°58'7 7.1
2014-Jul-23 14:33N 55°17' E 015°07'2 2.5
2014-Jul-23 13:33N 55°16' E 015°04'1 0.6
2014-Jul-23 12:34N 55°15' E 015°04'6 5.7
2014-Jul-23 11:34N 55°19' E 015°11'10 9.7
2014-Jul-23 10:34N 55°13' E 014°58'6 5.9
2014-Jul-23 09:33N 55°17' E 015°06'0 0.5
2014-Jul-23 08:34N 55°17' E 015°05'6 5.7
2014-Jul-23 07:34N 55°13' E 014°58'0 0.0
2014-Jul-22 18:34N 55°13' E 014°57'10 8.7
2014-Jul-22 17:25N 55°19' E 015°11'5 5.6
2014-Jul-22 16:34N 55°17' E 015°04'5 4.9
2014-Jul-22 15:31N 55°13' E 014°58'7 7.2
2014-Jul-22 14:34N 55°17' E 015°07'2 2.4
2014-Jul-22 13:33N 55°16' E 015°04'1 0.6
2014-Jul-22 12:33N 55°15' E 015°03'6 6.0
2014-Jul-22 11:33N 55°19' E 015°11'10 9.9
2014-Jul-22 10:34N 55°13' E 014°58'6 6.1
2014-Jul-22 09:34N 55°17' E 015°06'0 0.4
2014-Jul-22 08:33N 55°17' E 015°05'6 5.8
2014-Jul-22 07:34N 55°13' E 014°58'3 0.2
2014-Jul-21 15:34N 55°14' E 014°54'8 8.2
2014-Jul-21 14:34N 55°18' E 015°07'3 3.1
2014-Jul-21 13:33N 55°16' E 015°03'0 0.2
2014-Jul-21 12:34N 55°16' E 015°04'6 5.6
2014-Jul-21 11:33N 55°19' E 015°11'10 9.9
2014-Jul-21 10:34N 55°13' E 014°58'6 6.2
2014-Jul-21 09:34N 55°17' E 015°06'1 1.0
2014-Jul-21 08:34N 55°16' E 015°05'6 5.5
2014-Jul-21 07:34N 55°13' E 014°57'1 0.0
2014-Jul-20 15:33N 55°14' E 014°56'8 8.0
2014-Jul-20 14:33N 55°18' E 015°08'4 4.0
2014-Jul-20 13:33N 55°16' E 015°02'1 0.7
2014-Jul-20 12:34N 55°16' E 015°04'6 5.6
2014-Jul-20 11:33N 55°19' E 015°11'10 9.6
2014-Jul-20 10:33N 55°13' E 014°59'6 6.3
2014-Jul-20 09:33N 55°17' E 015°07'1 1.0
2014-Jul-20 08:34N 55°17' E 015°05'6 5.6
2014-Jul-20 07:34N 55°13' E 014°58'0 0.0
2014-Jul-20 06:34N 55°13' E 014°58'0 0.0
2014-Jul-20 05:33N 55°13' E 014°58'0 0.0
2014-Jul-20 04:34N 55°13' E 014°58'0 0.0
2014-Jul-20 03:33N 55°13' E 014°58'0 0.0
2014-Jul-20 02:34N 55°13' E 014°58'0 0.0
2014-Jul-20 01:33N 55°13' E 014°58'0 0.0
2014-Jul-20 00:33N 55°13' E 014°58'0 0.0
2014-Jul-19 23:33N 55°13' E 014°58'0 0.0
2014-Jul-19 22:33N 55°13' E 014°58'0 0.0
2014-Jul-19 21:34N 55°13' E 014°58'0 0.0
2014-Jul-19 20:34N 55°13' E 014°58'0 0.0
2014-Jul-19 19:33N 55°13' E 014°58'0 0.0
2014-Jul-19 18:34N 55°13' E 014°58'0 0.0
2014-Jul-19 17:33N 55°13' E 014°58'0 0.0
2014-Jul-19 16:33N 55°13' E 014°58'0 0.0
2014-Jul-19 15:33N 55°13' E 014°58'7 7.3
2014-Jul-19 14:33N 55°18' E 015°08'3 2.8
2014-Jul-19 13:34N 55°16' E 015°04'0 0.4
2014-Jul-19 12:34N 55°16' E 015°03'6 5.7
2014-Jul-19 11:33N 55°19' E 015°11'10 9.5
2014-Jul-19 10:33N 55°13' E 014°59'6 6.0
2014-Jul-19 09:34N 55°17' E 015°06'0 0.3
2014-Jul-19 08:33N 55°17' E 015°06'6 6.2
2014-Jul-19 07:33N 55°13' E 014°58'0 0.0
2014-Jul-19 06:33N 55°13' E 014°58'0 0.0
2014-Jul-19 05:33N 55°13' E 014°58'0 0.0
2014-Jul-19 04:34N 55°13' E 014°58'0 0.0
2014-Jul-19 03:32N 55°13' E 014°58'0 0.0
2014-Jul-19 02:33N 55°13' E 014°58'0 0.0
2014-Jul-19 01:34N 55°13' E 014°58'0 0.0
2014-Jul-19 00:34N 55°13' E 014°58'0 0.0
2014-Jul-18 23:34N 55°13' E 014°58'0 0.0
2014-Jul-18 22:33N 55°13' E 014°58'0 0.0
2014-Jul-18 21:34N 55°13' E 014°58'0 0.0
2014-Jul-18 20:33N 55°13' E 014°58'0 0.0
2014-Jul-18 19:33N 55°13' E 014°58'0 0.0
2014-Jul-18 18:34N 55°13' E 014°58'0 0.0
2014-Jul-18 17:34N 55°13' E 014°58'0 0.0
2014-Jul-18 16:33N 55°13' E 014°58'0 0.0
2014-Jul-18 15:33N 55°13' E 014°58'7 7.4
2014-Jul-18 14:34N 55°18' E 015°08'4 3.7
2014-Jul-18 13:33N 55°15' E 015°03'0 0.5
2014-Jul-18 12:34N 55°16' E 015°03'6 5.7
2014-Jul-18 11:33N 55°19' E 015°11'10 9.6
2014-Jul-18 10:34N 55°13' E 014°59'6 5.8
2014-Jul-18 09:33N 55°17' E 015°06'0 0.4
2014-Jul-18 08:33N 55°17' E 015°06'6 6.4
2014-Jul-18 07:33N 55°13' E 014°58'0 0.0
2014-Jul-18 06:33N 55°13' E 014°58'0 0.0
2014-Jul-18 05:34N 55°13' E 014°58'0 0.0
2014-Jul-18 04:33N 55°13' E 014°58'0 0.0
2014-Jul-18 03:33N 55°13' E 014°58'0 0.0
2014-Jul-18 02:34N 55°13' E 014°58'0 0.0
2014-Jul-18 01:34N 55°13' E 014°58'0 0.0
2014-Jul-18 00:34N 55°13' E 014°58'0 0.0
2014-Jul-17 23:34N 55°13' E 014°58'0 0.0
2014-Jul-17 22:33N 55°13' E 014°58'0 0.0
2014-Jul-17 21:34N 55°13' E 014°58'0 0.0
2014-Jul-17 20:34N 55°13' E 014°58'0 0.0
2014-Jul-17 19:33N 55°13' E 014°58'0 0.0
2014-Jul-17 18:33N 55°13' E 014°58'1010.1
2014-Jul-17 17:34N 55°20' E 015°11'6 5.6
2014-Jul-17 16:34N 55°16' E 015°04'4 4.4
2014-Jul-17 15:34N 55°13' E 014°58'7 7.2
2014-Jul-17 14:34N 55°18' E 015°07'2 1.6
2014-Jul-17 13:34N 55°17' E 015°06'2 2.3
2014-Jul-17 12:34N 55°15' E 015°02'6 6.4
2014-Jul-17 11:34N 55°19' E 015°11'9 9.0
2014-Jul-17 10:34N 55°13' E 014°59'5 5.2
2014-Jul-17 09:33N 55°17' E 015°06'1 0.5
2014-Jul-17 08:33N 55°17' E 015°06'6 6.4
2014-Jul-17 07:33N 55°13' E 014°58'0 0.0
2014-Jul-17 06:34N 55°13' E 014°58'0 0.0
2014-Jul-17 05:33N 55°13' E 014°58'0 0.0
2014-Jul-17 04:33N 55°13' E 014°58'0 0.0
2014-Jul-17 03:33N 55°13' E 014°58'0 0.0
2014-Jul-17 02:34N 55°13' E 014°58'0 0.0
2014-Jul-17 01:34N 55°13' E 014°58'0 0.0
2014-Jul-17 00:33N 55°13' E 014°58'0 0.0
2014-Jul-16 23:34N 55°13' E 014°58'0 0.0
2014-Jul-16 22:33N 55°13' E 014°58'0 0.0
2014-Jul-16 21:34N 55°13' E 014°58'0 0.0
2014-Jul-16 20:34N 55°13' E 014°58'0 0.0
2014-Jul-16 19:34N 55°13' E 014°58'0 0.0
2014-Jul-16 18:33N 55°13' E 014°58'  

Dump ship's entire track history